sensor_id;sensor_type;location;lat;lon;timestamp;P1;durP1;ratioP1;P2;durP2;ratioP2
52396;SDS011;38322;53.108;6.308;2023-04-19T05:02:14;12.07;;;6.53;;
52396;SDS011;38322;53.108;6.308;2023-04-19T05:04:41;6.32;;;5.53;;
52396;SDS011;38322;53.108;6.308;2023-04-19T05:07:06;10.43;;;5.97;;
52396;SDS011;38322;53.108;6.308;2023-04-19T05:09:32;8.65;;;5.57;;
52396;SDS011;38322;53.108;6.308;2023-04-19T05:11:58;10.93;;;4.88;;
52396;SDS011;38322;53.108;6.308;2023-04-19T05:14:24;10.13;;;5.70;;
52396;SDS011;38322;53.108;6.308;2023-04-19T05:16:50;8.93;;;5.25;;
52396;SDS011;38322;53.108;6.308;2023-04-19T05:19:15;8.02;;;4.80;;
52396;SDS011;38322;53.108;6.308;2023-04-19T05:21:41;9.00;;;5.28;;
52396;SDS011;38322;53.108;6.308;2023-04-19T05:24:07;7.05;;;4.88;;
52396;SDS011;38322;53.108;6.308;2023-04-19T05:26:34;9.02;;;4.70;;
52396;SDS011;38322;53.108;6.308;2023-04-19T05:29:00;9.38;;;5.40;;
52396;SDS011;38322;53.108;6.308;2023-04-19T05:31:25;7.78;;;3.65;;
52396;SDS011;38322;53.108;6.308;2023-04-19T05:33:51;6.53;;;4.75;;
52396;SDS011;38322;53.108;6.308;2023-04-19T05:36:17;6.85;;;4.18;;
52396;SDS011;38322;53.108;6.308;2023-04-19T05:38:43;7.40;;;4.30;;
52396;SDS011;38322;53.108;6.308;2023-04-19T05:41:09;5.63;;;4.13;;
52396;SDS011;38322;53.108;6.308;2023-04-19T05:43:36;7.82;;;4.65;;
52396;SDS011;38322;53.108;6.308;2023-04-19T05:46:02;13.00;;;5.40;;
52396;SDS011;38322;53.108;6.308;2023-04-19T05:48:27;6.75;;;4.55;;
52396;SDS011;38322;53.108;6.308;2023-04-19T05:50:53;7.88;;;4.03;;
52396;SDS011;38322;53.108;6.308;2023-04-19T05:53:21;5.75;;;4.05;;
52396;SDS011;38322;53.108;6.308;2023-04-19T05:55:47;7.65;;;4.15;;
52396;SDS011;38322;53.108;6.308;2023-04-19T05:58:15;6.75;;;4.15;;
52396;SDS011;38322;53.108;6.308;2023-04-19T06:00:41;6.93;;;3.53;;
52396;SDS011;38322;53.108;6.308;2023-04-19T06:03:07;5.35;;;4.20;;
52396;SDS011;38322;53.108;6.308;2023-04-19T06:05:32;5.75;;;4.20;;
52396;SDS011;38322;53.108;6.308;2023-04-19T06:07:58;4.32;;;3.47;;
52396;SDS011;38322;53.108;6.308;2023-04-19T06:10:24;4.43;;;3.38;;
52396;SDS011;38322;53.108;6.308;2023-04-19T06:12:50;7.00;;;4.03;;
52396;SDS011;38322;53.108;6.308;2023-04-19T06:15:16;8.77;;;3.47;;
52396;SDS011;38322;53.108;6.308;2023-04-19T06:17:42;5.47;;;3.88;;
52396;SDS011;38322;53.108;6.308;2023-04-19T06:20:08;6.05;;;3.42;;
52396;SDS011;38322;53.108;6.308;2023-04-19T06:22:34;8.43;;;4.47;;
52396;SDS011;38322;53.108;6.308;2023-04-19T06:25:07;5.15;;;2.78;;
52396;SDS011;38322;53.108;6.308;2023-04-19T06:27:33;6.28;;;3.50;;
52396;SDS011;38322;53.108;6.308;2023-04-19T06:29:59;4.30;;;2.80;;
52396;SDS011;38322;53.108;6.308;2023-04-19T06:32:25;8.25;;;4.00;;
52396;SDS011;38322;53.108;6.308;2023-04-19T06:34:51;5.18;;;3.38;;
52396;SDS011;38322;53.108;6.308;2023-04-19T06:37:17;6.97;;;3.15;;
52396;SDS011;38322;53.108;6.308;2023-04-19T06:39:43;4.95;;;3.08;;
52396;SDS011;38322;53.108;6.308;2023-04-19T06:42:08;3.88;;;3.22;;
52396;SDS011;38322;53.108;6.308;2023-04-19T06:44:34;5.85;;;3.65;;
52396;SDS011;38322;53.108;6.308;2023-04-19T06:47:00;5.82;;;2.83;;
52396;SDS011;38322;53.108;6.308;2023-04-19T06:49:26;4.15;;;2.58;;
52396;SDS011;38322;53.108;6.308;2023-04-19T06:51:51;8.98;;;2.05;;
52396;SDS011;38322;53.108;6.308;2023-04-19T06:54:17;4.15;;;3.08;;
52396;SDS011;38322;53.108;6.308;2023-04-19T06:59:11;5.05;;;2.05;;
52396;SDS011;38322;53.108;6.308;2023-04-19T07:01:38;5.30;;;2.78;;
52396;SDS011;38322;53.108;6.308;2023-04-19T07:04:05;6.35;;;2.72;;
52396;SDS011;38322;53.108;6.308;2023-04-19T07:06:33;3.97;;;2.20;;
52396;SDS011;38322;53.108;6.308;2023-04-19T07:08:59;4.25;;;2.65;;
52396;SDS011;38322;53.108;6.308;2023-04-19T07:11:26;3.80;;;2.55;;
52396;SDS011;38322;53.108;6.308;2023-04-19T07:13:51;5.45;;;2.53;;
52396;SDS011;38322;53.108;6.308;2023-04-19T07:16:17;3.00;;;1.80;;
52396;SDS011;38322;53.108;6.308;2023-04-19T07:18:44;5.50;;;2.38;;
52396;SDS011;38322;53.108;6.308;2023-04-19T07:21:09;2.83;;;1.85;;
52396;SDS011;38322;53.108;6.308;2023-04-19T07:23:36;5.53;;;2.00;;
52396;SDS011;38322;53.108;6.308;2023-04-19T07:26:02;4.35;;;1.98;;
52396;SDS011;38322;53.108;6.308;2023-04-19T07:28:28;4.93;;;2.65;;
52396;SDS011;38322;53.108;6.308;2023-04-19T07:30:55;4.32;;;2.45;;
52396;SDS011;38322;53.108;6.308;2023-04-19T07:33:21;6.82;;;2.13;;
52396;SDS011;38322;53.108;6.308;2023-04-19T07:35:48;1.77;;;0.93;;
52396;SDS011;38322;53.108;6.308;2023-04-19T07:38:15;3.63;;;1.55;;
52396;SDS011;38322;53.108;6.308;2023-04-19T07:40:41;5.57;;;2.00;;
52396;SDS011;38322;53.108;6.308;2023-04-19T07:43:07;4.38;;;1.73;;
52396;SDS011;38322;53.108;6.308;2023-04-19T07:45:34;3.17;;;1.67;;
52396;SDS011;38322;53.108;6.308;2023-04-19T07:48:00;7.10;;;2.22;;
52396;SDS011;38322;53.108;6.308;2023-04-19T07:50:25;3.47;;;1.73;;
52396;SDS011;38322;53.108;6.308;2023-04-19T07:52:52;2.00;;;1.10;;
52396;SDS011;38322;53.108;6.308;2023-04-19T07:55:18;2.60;;;2.03;;
52396;SDS011;38322;53.108;6.308;2023-04-19T07:57:44;2.88;;;1.50;;
52396;SDS011;38322;53.108;6.308;2023-04-19T08:00:14;5.97;;;1.80;;
52396;SDS011;38322;53.108;6.308;2023-04-19T08:02:42;2.30;;;1.65;;
52396;SDS011;38322;53.108;6.308;2023-04-19T08:05:10;4.60;;;1.90;;
52396;SDS011;38322;53.108;6.308;2023-04-19T08:07:36;3.45;;;1.65;;
52396;SDS011;38322;53.108;6.308;2023-04-19T08:10:03;3.95;;;2.58;;
52396;SDS011;38322;53.108;6.308;2023-04-19T08:12:30;2.33;;;1.75;;
52396;SDS011;38322;53.108;6.308;2023-04-19T08:14:56;3.97;;;1.88;;
52396;SDS011;38322;53.108;6.308;2023-04-19T08:17:22;3.80;;;1.95;;
52396;SDS011;38322;53.108;6.308;2023-04-19T08:19:49;4.88;;;2.17;;
52396;SDS011;38322;53.108;6.308;2023-04-19T08:22:15;4.90;;;2.28;;
52396;SDS011;38322;53.108;6.308;2023-04-19T08:24:42;3.92;;;1.67;;
52396;SDS011;38322;53.108;6.308;2023-04-19T08:27:08;1.83;;;1.67;;
52396;SDS011;38322;53.108;6.308;2023-04-19T08:29:35;7.40;;;1.52;;
52396;SDS011;38322;53.108;6.308;2023-04-19T08:32:03;1.80;;;1.65;;
52396;SDS011;38322;53.108;6.308;2023-04-19T08:34:30;2.35;;;1.60;;
52396;SDS011;38322;53.108;6.308;2023-04-19T08:36:56;2.15;;;1.35;;
52396;SDS011;38322;53.108;6.308;2023-04-19T08:39:22;3.50;;;1.63;;
52396;SDS011;38322;53.108;6.308;2023-04-19T08:41:48;2.55;;;1.48;;
52396;SDS011;38322;53.108;6.308;2023-04-19T08:44:15;4.15;;;1.42;;
52396;SDS011;38322;53.108;6.308;2023-04-19T08:46:42;2.05;;;1.73;;
52396;SDS011;38322;53.108;6.308;2023-04-19T08:49:08;2.45;;;1.08;;
52396;SDS011;38322;53.108;6.308;2023-04-19T08:51:34;2.17;;;1.77;;
52396;SDS011;38322;53.108;6.308;2023-04-19T08:54:04;3.92;;;1.83;;
52396;SDS011;38322;53.108;6.308;2023-04-19T08:56:31;2.05;;;1.42;;
52396;SDS011;38322;53.108;6.308;2023-04-19T08:58:57;5.22;;;1.73;;
52396;SDS011;38322;53.108;6.308;2023-04-19T09:01:23;4.55;;;2.22;;
52396;SDS011;38322;53.108;6.308;2023-04-19T09:03:49;7.65;;;1.98;;
52396;SDS011;38322;53.108;6.308;2023-04-19T09:06:15;2.30;;;1.50;;
52396;SDS011;38322;53.108;6.308;2023-04-19T09:08:41;2.78;;;1.27;;
52396;SDS011;38322;53.108;6.308;2023-04-19T09:11:07;1.85;;;1.17;;
52396;SDS011;38322;53.108;6.308;2023-04-19T09:13:33;2.28;;;1.98;;
52396;SDS011;38322;53.108;6.308;2023-04-19T09:16:02;2.30;;;1.10;;
52396;SDS011;38322;53.108;6.308;2023-04-19T09:18:29;5.20;;;1.75;;
52396;SDS011;38322;53.108;6.308;2023-04-19T09:20:55;1.80;;;1.00;;
52396;SDS011;38322;53.108;6.308;2023-04-19T09:23:22;2.67;;;0.95;;
52396;SDS011;38322;53.108;6.308;2023-04-19T09:25:52;1.60;;;1.17;;
52396;SDS011;38322;53.108;6.308;2023-04-19T09:28:25;2.92;;;1.23;;
52396;SDS011;38322;53.108;6.308;2023-04-19T09:30:52;2.88;;;0.80;;
52396;SDS011;38322;53.108;6.308;2023-04-19T09:33:36;5.55;;;1.38;;
52396;SDS011;38322;53.108;6.308;2023-04-19T09:36:04;1.60;;;0.85;;
52396;SDS011;38322;53.108;6.308;2023-04-19T09:38:46;2.58;;;1.00;;
52396;SDS011;38322;53.108;6.308;2023-04-19T09:41:13;2.50;;;1.00;;
52396;SDS011;38322;53.108;6.308;2023-04-19T09:43:38;2.22;;;0.68;;
52396;SDS011;38322;53.108;6.308;2023-04-19T09:46:04;1.52;;;1.08;;
52396;SDS011;38322;53.108;6.308;2023-04-19T09:48:30;1.98;;;0.65;;
52396;SDS011;38322;53.108;6.308;2023-04-19T09:50:57;8.57;;;1.33;;
52396;SDS011;38322;53.108;6.308;2023-04-19T09:53:26;1.52;;;0.70;;
52396;SDS011;38322;53.108;6.308;2023-04-19T09:55:53;0.95;;;0.60;;
52396;SDS011;38322;53.108;6.308;2023-04-19T09:58:19;2.58;;;0.88;;
52396;SDS011;38322;53.108;6.308;2023-04-19T10:00:46;6.60;;;0.98;;
52396;SDS011;38322;53.108;6.308;2023-04-19T10:03:14;2.58;;;0.85;;
52396;SDS011;38322;53.108;6.308;2023-04-19T10:05:42;1.23;;;0.40;;
52396;SDS011;38322;53.108;6.308;2023-04-19T10:08:09;5.10;;;1.83;;
52396;SDS011;38322;53.108;6.308;2023-04-19T10:10:36;1.73;;;0.95;;
52396;SDS011;38322;53.108;6.308;2023-04-19T10:13:06;1.95;;;0.50;;
52396;SDS011;38322;53.108;6.308;2023-04-19T10:15:35;1.85;;;1.17;;
52396;SDS011;38322;53.108;6.308;2023-04-19T10:18:03;1.45;;;0.40;;
52396;SDS011;38322;53.108;6.308;2023-04-19T10:20:30;3.28;;;0.98;;
52396;SDS011;38322;53.108;6.308;2023-04-19T10:23:13;2.35;;;0.98;;
52396;SDS011;38322;53.108;6.308;2023-04-19T10:25:44;4.15;;;0.73;;
52396;SDS011;38322;53.108;6.308;2023-04-19T10:28:11;1.98;;;0.73;;
52396;SDS011;38322;53.108;6.308;2023-04-19T10:30:37;1.10;;;0.47;;
52396;SDS011;38322;53.108;6.308;2023-04-19T10:33:23;1.67;;;0.70;;
52396;SDS011;38322;53.108;6.308;2023-04-19T10:35:54;3.40;;;0.93;;
52396;SDS011;38322;53.108;6.308;2023-04-19T10:38:24;7.60;;;0.80;;
52396;SDS011;38322;53.108;6.308;2023-04-19T10:41:01;3.20;;;0.82;;
52396;SDS011;38322;53.108;6.308;2023-04-19T10:43:29;2.13;;;0.70;;
52396;SDS011;38322;53.108;6.308;2023-04-19T10:45:58;1.90;;;0.57;;
52396;SDS011;38322;53.108;6.308;2023-04-19T10:51:03;1.88;;;0.77;;
52396;SDS011;38322;53.108;6.308;2023-04-19T10:53:55;1.85;;;0.65;;
52396;SDS011;38322;53.108;6.308;2023-04-19T11:04:03;1.33;;;0.50;;
52396;SDS011;38322;53.108;6.308;2023-04-19T11:06:31;2.20;;;0.50;;
52396;SDS011;38322;53.108;6.308;2023-04-19T11:08:58;3.20;;;0.82;;
52396;SDS011;38322;53.108;6.308;2023-04-19T11:11:25;9.35;;;0.80;;
52396;SDS011;38322;53.108;6.308;2023-04-19T11:13:52;1.95;;;0.63;;
52396;SDS011;38322;53.108;6.308;2023-04-19T11:16:19;1.33;;;0.70;;
52396;SDS011;38322;53.108;6.308;2023-04-19T11:18:45;1.48;;;0.40;;
52396;SDS011;38322;53.108;6.308;2023-04-19T11:21:11;1.58;;;0.30;;
52396;SDS011;38322;53.108;6.308;2023-04-19T11:23:39;0.88;;;0.30;;
52396;SDS011;38322;53.108;6.308;2023-04-19T11:26:05;6.45;;;0.93;;
52396;SDS011;38322;53.108;6.308;2023-04-19T11:28:36;5.18;;;0.60;;
52396;SDS011;38322;53.108;6.308;2023-04-19T11:31:02;1.20;;;0.55;;
52396;SDS011;38322;53.108;6.308;2023-04-19T11:33:33;4.72;;;0.68;;
52396;SDS011;38322;53.108;6.308;2023-04-19T11:36:00;0.73;;;0.23;;
52396;SDS011;38322;53.108;6.308;2023-04-19T11:38:27;1.85;;;0.68;;
52396;SDS011;38322;53.108;6.308;2023-04-19T11:41:00;1.10;;;0.60;;
52396;SDS011;38322;53.108;6.308;2023-04-19T11:43:34;1.25;;;0.75;;
52396;SDS011;38322;53.108;6.308;2023-04-19T11:46:04;3.00;;;0.90;;
52396;SDS011;38322;53.108;6.308;2023-04-19T11:48:37;2.08;;;0.50;;
52396;SDS011;38322;53.108;6.308;2023-04-19T11:51:13;0.82;;;0.40;;
52396;SDS011;38322;53.108;6.308;2023-04-19T11:53:40;1.58;;;0.60;;
52396;SDS011;38322;53.108;6.308;2023-04-19T11:56:06;1.23;;;0.70;;
52396;SDS011;38322;53.108;6.308;2023-04-19T11:58:43;1.98;;;0.50;;
52396;SDS011;38322;53.108;6.308;2023-04-19T12:01:18;1.02;;;0.65;;
52396;SDS011;38322;53.108;6.308;2023-04-19T12:03:46;1.30;;;0.57;;
52396;SDS011;38322;53.108;6.308;2023-04-19T12:06:14;3.40;;;1.08;;
52396;SDS011;38322;53.108;6.308;2023-04-19T12:08:43;2.03;;;0.85;;
52396;SDS011;38322;53.108;6.308;2023-04-19T12:11:12;5.63;;;0.70;;
52396;SDS011;38322;53.108;6.308;2023-04-19T12:13:39;1.35;;;0.70;;
52396;SDS011;38322;53.108;6.308;2023-04-19T12:16:05;1.92;;;0.90;;
52396;SDS011;38322;53.108;6.308;2023-04-19T12:18:45;2.78;;;1.30;;
52396;SDS011;38322;53.108;6.308;2023-04-19T12:21:23;2.90;;;0.70;;
52396;SDS011;38322;53.108;6.308;2023-04-19T12:23:54;1.63;;;0.75;;
52396;SDS011;38322;53.108;6.308;2023-04-19T12:26:21;4.00;;;0.80;;
52396;SDS011;38322;53.108;6.308;2023-04-19T12:28:47;1.77;;;1.08;;
52396;SDS011;38322;53.108;6.308;2023-04-19T12:31:13;4.22;;;1.27;;
52396;SDS011;38322;53.108;6.308;2023-04-19T12:33:39;5.25;;;1.02;;
52396;SDS011;38322;53.108;6.308;2023-04-19T12:36:05;2.72;;;1.30;;
52396;SDS011;38322;53.108;6.308;2023-04-19T12:38:30;3.13;;;1.50;;
52396;SDS011;38322;53.108;6.308;2023-04-19T12:40:56;2.90;;;1.27;;
52396;SDS011;38322;53.108;6.308;2023-04-19T12:43:22;3.95;;;1.17;;
52396;SDS011;38322;53.108;6.308;2023-04-19T12:45:48;2.80;;;1.90;;
52396;SDS011;38322;53.108;6.308;2023-04-19T12:48:14;2.63;;;1.58;;
52396;SDS011;38322;53.108;6.308;2023-04-19T12:50:40;1.67;;;1.30;;
52396;SDS011;38322;53.108;6.308;2023-04-19T12:53:05;3.47;;;1.65;;
52396;SDS011;38322;53.108;6.308;2023-04-19T12:55:32;5.65;;;2.05;;
52396;SDS011;38322;53.108;6.308;2023-04-19T12:57:57;3.20;;;1.35;;
52396;SDS011;38322;53.108;6.308;2023-04-19T13:00:23;4.47;;;2.10;;
52396;SDS011;38322;53.108;6.308;2023-04-19T13:02:49;3.15;;;1.52;;
52396;SDS011;38322;53.108;6.308;2023-04-19T13:05:15;3.65;;;2.13;;
52396;SDS011;38322;53.108;6.308;2023-04-19T13:07:41;6.68;;;2.58;;
52396;SDS011;38322;53.108;6.308;2023-04-19T13:10:07;8.32;;;2.55;;
52396;SDS011;38322;53.108;6.308;2023-04-19T13:12:33;6.78;;;2.38;;
52396;SDS011;38322;53.108;6.308;2023-04-19T13:15:00;5.22;;;3.60;;
52396;SDS011;38322;53.108;6.308;2023-04-19T13:17:25;3.10;;;2.25;;
52396;SDS011;38322;53.108;6.308;2023-04-19T13:19:52;3.22;;;1.55;;
52396;SDS011;38322;53.108;6.308;2023-04-19T13:22:17;8.05;;;3.42;;
52396;SDS011;38322;53.108;6.308;2023-04-19T13:24:43;4.00;;;2.90;;
52396;SDS011;38322;53.108;6.308;2023-04-19T13:27:09;4.53;;;2.42;;
52396;SDS011;38322;53.108;6.308;2023-04-19T13:29:35;5.45;;;2.45;;
52396;SDS011;38322;53.108;6.308;2023-04-19T13:32:01;4.75;;;2.10;;
52396;SDS011;38322;53.108;6.308;2023-04-19T13:34:27;3.80;;;2.42;;
52396;SDS011;38322;53.108;6.308;2023-04-19T13:36:53;9.38;;;2.75;;
52396;SDS011;38322;53.108;6.308;2023-04-19T13:39:19;7.32;;;2.88;;
52396;SDS011;38322;53.108;6.308;2023-04-19T13:41:45;6.10;;;3.33;;
52396;SDS011;38322;53.108;6.308;2023-04-19T13:44:11;5.70;;;3.20;;
52396;SDS011;38322;53.108;6.308;2023-04-19T13:46:37;5.53;;;3.67;;
52396;SDS011;38322;53.108;6.308;2023-04-19T13:49:03;5.40;;;3.25;;
52396;SDS011;38322;53.108;6.308;2023-04-19T13:51:29;5.22;;;2.85;;
52396;SDS011;38322;53.108;6.308;2023-04-19T13:53:55;4.35;;;2.75;;
52396;SDS011;38322;53.108;6.308;2023-04-19T13:56:21;4.60;;;3.13;;
52396;SDS011;38322;53.108;6.308;2023-04-19T13:58:46;3.65;;;2.42;;
52396;SDS011;38322;53.108;6.308;2023-04-19T14:01:12;4.57;;;2.63;;
52396;SDS011;38322;53.108;6.308;2023-04-19T14:03:38;4.68;;;2.50;;
52396;SDS011;38322;53.108;6.308;2023-04-19T14:06:04;3.50;;;2.58;;
52396;SDS011;38322;53.108;6.308;2023-04-19T14:08:30;5.75;;;3.35;;
52396;SDS011;38322;53.108;6.308;2023-04-19T14:10:56;7.88;;;2.97;;
52396;SDS011;38322;53.108;6.308;2023-04-19T14:13:23;6.88;;;4.10;;
52396;SDS011;38322;53.108;6.308;2023-04-19T14:15:49;8.68;;;2.80;;
52396;SDS011;38322;53.108;6.308;2023-04-19T14:18:14;5.03;;;2.58;;
52396;SDS011;38322;53.108;6.308;2023-04-19T14:20:41;5.30;;;3.42;;
52396;SDS011;38322;53.108;6.308;2023-04-19T14:23:06;5.95;;;3.38;;
52396;SDS011;38322;53.108;6.308;2023-04-19T14:25:33;5.07;;;3.15;;
52396;SDS011;38322;53.108;6.308;2023-04-19T14:28:00;5.18;;;2.70;;
52396;SDS011;38322;53.108;6.308;2023-04-19T14:30:26;6.68;;;2.95;;
52396;SDS011;38322;53.108;6.308;2023-04-19T14:32:53;4.22;;;2.88;;
52396;SDS011;38322;53.108;6.308;2023-04-19T14:35:19;8.30;;;3.28;;
52396;SDS011;38322;53.108;6.308;2023-04-19T14:37:44;7.28;;;3.50;;
52396;SDS011;38322;53.108;6.308;2023-04-19T14:40:10;6.47;;;3.60;;
52396;SDS011;38322;53.108;6.308;2023-04-19T14:42:36;6.22;;;3.28;;
52396;SDS011;38322;53.108;6.308;2023-04-19T14:45:02;8.48;;;3.28;;
52396;SDS011;38322;53.108;6.308;2023-04-19T14:47:29;9.63;;;4.10;;
52396;SDS011;38322;53.108;6.308;2023-04-19T14:49:54;4.45;;;3.08;;
52396;SDS011;38322;53.108;6.308;2023-04-19T14:52:20;6.63;;;3.53;;
52396;SDS011;38322;53.108;6.308;2023-04-19T14:54:46;5.18;;;3.55;;
52396;SDS011;38322;53.108;6.308;2023-04-19T14:57:12;3.92;;;2.88;;
52396;SDS011;38322;53.108;6.308;2023-04-19T14:59:38;6.57;;;2.83;;
52396;SDS011;38322;53.108;6.308;2023-04-19T15:02:04;5.95;;;2.83;;
52396;SDS011;38322;53.108;6.308;2023-04-19T15:04:32;6.22;;;3.00;;
52396;SDS011;38322;53.108;6.308;2023-04-19T15:06:59;3.58;;;2.28;;
52396;SDS011;38322;53.108;6.308;2023-04-19T15:09:25;2.58;;;1.73;;
52396;SDS011;38322;53.108;6.308;2023-04-19T15:11:51;5.70;;;3.13;;
52396;SDS011;38322;53.108;6.308;2023-04-19T15:14:17;4.55;;;2.38;;
52396;SDS011;38322;53.108;6.308;2023-04-19T15:16:44;3.72;;;2.60;;
52396;SDS011;38322;53.108;6.308;2023-04-19T15:19:10;5.00;;;2.63;;
52396;SDS011;38322;53.108;6.308;2023-04-19T15:21:36;5.30;;;2.10;;
52396;SDS011;38322;53.108;6.308;2023-04-19T15:24:04;2.90;;;1.77;;
52396;SDS011;38322;53.108;6.308;2023-04-19T15:26:30;3.13;;;2.00;;
52396;SDS011;38322;53.108;6.308;2023-04-19T15:28:56;3.65;;;2.47;;
52396;SDS011;38322;53.108;6.308;2023-04-19T15:31:23;7.75;;;3.60;;
52396;SDS011;38322;53.108;6.308;2023-04-19T15:33:49;2.40;;;1.27;;
52396;SDS011;38322;53.108;6.308;2023-04-19T15:36:15;5.50;;;1.77;;
52396;SDS011;38322;53.108;6.308;2023-04-19T15:38:41;2.90;;;1.50;;
52396;SDS011;38322;53.108;6.308;2023-04-19T15:41:06;3.08;;;1.45;;
52396;SDS011;38322;53.108;6.308;2023-04-19T15:43:32;3.55;;;1.15;;
52396;SDS011;38322;53.108;6.308;2023-04-19T15:45:58;3.97;;;1.58;;
52396;SDS011;38322;53.108;6.308;2023-04-19T15:48:24;3.47;;;1.52;;
52396;SDS011;38322;53.108;6.308;2023-04-19T15:50:50;3.30;;;1.38;;
52396;SDS011;38322;53.108;6.308;2023-04-19T15:53:16;4.20;;;2.05;;
52396;SDS011;38322;53.108;6.308;2023-04-19T15:55:42;5.35;;;1.35;;
52396;SDS011;38322;53.108;6.308;2023-04-19T15:58:10;3.03;;;1.88;;
52396;SDS011;38322;53.108;6.308;2023-04-19T16:00:36;3.38;;;1.55;;
52396;SDS011;38322;53.108;6.308;2023-04-19T16:03:02;3.33;;;1.88;;
52396;SDS011;38322;53.108;6.308;2023-04-19T16:05:28;4.82;;;2.15;;
52396;SDS011;38322;53.108;6.308;2023-04-19T16:08:04;2.65;;;1.65;;
52396;SDS011;38322;53.108;6.308;2023-04-19T16:10:33;2.50;;;1.63;;
52396;SDS011;38322;53.108;6.308;2023-04-19T16:13:00;2.85;;;1.67;;
52396;SDS011;38322;53.108;6.308;2023-04-19T16:15:29;4.43;;;1.98;;
52396;SDS011;38322;53.108;6.308;2023-04-19T16:17:56;4.45;;;1.67;;
52396;SDS011;38322;53.108;6.308;2023-04-19T16:20:22;3.58;;;1.20;;
52396;SDS011;38322;53.108;6.308;2023-04-19T16:22:48;3.05;;;1.10;;
52396;SDS011;38322;53.108;6.308;2023-04-19T16:25:14;3.97;;;1.77;;
52396;SDS011;38322;53.108;6.308;2023-04-19T16:27:41;5.70;;;1.48;;
52396;SDS011;38322;53.108;6.308;2023-04-19T16:30:09;3.00;;;1.55;;
52396;SDS011;38322;53.108;6.308;2023-04-19T16:32:36;4.25;;;1.73;;
52396;SDS011;38322;53.108;6.308;2023-04-19T16:35:03;3.55;;;1.27;;
52396;SDS011;38322;53.108;6.308;2023-04-19T16:37:30;2.42;;;1.98;;
52396;SDS011;38322;53.108;6.308;2023-04-19T16:39:56;4.75;;;1.73;;
52396;SDS011;38322;53.108;6.308;2023-04-19T16:42:22;3.70;;;1.67;;
52396;SDS011;38322;53.108;6.308;2023-04-19T16:44:48;3.78;;;1.80;;
52396;SDS011;38322;53.108;6.308;2023-04-19T16:47:14;4.88;;;2.08;;
52396;SDS011;38322;53.108;6.308;2023-04-19T16:49:40;5.32;;;1.63;;
52396;SDS011;38322;53.108;6.308;2023-04-19T16:52:06;2.47;;;1.65;;
52396;SDS011;38322;53.108;6.308;2023-04-19T16:54:32;5.45;;;2.15;;
52396;SDS011;38322;53.108;6.308;2023-04-19T16:56:58;4.40;;;1.92;;
52396;SDS011;38322;53.108;6.308;2023-04-19T16:59:26;3.63;;;1.65;;
52396;SDS011;38322;53.108;6.308;2023-04-19T17:01:52;5.38;;;1.85;;
52396;SDS011;38322;53.108;6.308;2023-04-19T17:04:19;5.88;;;2.08;;
52396;SDS011;38322;53.108;6.308;2023-04-19T17:06:45;5.47;;;2.22;;
52396;SDS011;38322;53.108;6.308;2023-04-19T17:09:11;3.97;;;1.60;;
52396;SDS011;38322;53.108;6.308;2023-04-19T17:11:36;3.90;;;1.42;;
52396;SDS011;38322;53.108;6.308;2023-04-19T17:14:03;9.23;;;1.95;;
52396;SDS011;38322;53.108;6.308;2023-04-19T17:16:29;4.30;;;1.35;;
52396;SDS011;38322;53.108;6.308;2023-04-19T17:18:54;2.28;;;1.48;;
52396;SDS011;38322;53.108;6.308;2023-04-19T17:21:20;7.20;;;1.55;;
52396;SDS011;38322;53.108;6.308;2023-04-19T17:23:46;3.13;;;1.90;;
52396;SDS011;38322;53.108;6.308;2023-04-19T17:26:13;3.78;;;2.00;;
52396;SDS011;38322;53.108;6.308;2023-04-19T17:28:40;4.88;;;1.95;;
52396;SDS011;38322;53.108;6.308;2023-04-19T17:31:06;7.65;;;2.42;;
52396;SDS011;38322;53.108;6.308;2023-04-19T17:33:32;1.80;;;1.35;;
52396;SDS011;38322;53.108;6.308;2023-04-19T17:35:58;4.82;;;1.80;;
52396;SDS011;38322;53.108;6.308;2023-04-19T17:38:24;3.95;;;1.90;;
52396;SDS011;38322;53.108;6.308;2023-04-19T17:40:50;3.22;;;1.05;;
52396;SDS011;38322;53.108;6.308;2023-04-19T17:43:16;2.50;;;1.75;;
52396;SDS011;38322;53.108;6.308;2023-04-19T17:45:41;2.83;;;1.77;;
52396;SDS011;38322;53.108;6.308;2023-04-19T17:48:07;5.07;;;2.15;;
52396;SDS011;38322;53.108;6.308;2023-04-19T17:50:33;4.97;;;2.03;;
52396;SDS011;38322;53.108;6.308;2023-04-19T17:52:59;5.60;;;1.88;;
52396;SDS011;38322;53.108;6.308;2023-04-19T17:55:25;3.30;;;2.35;;
52396;SDS011;38322;53.108;6.308;2023-04-19T17:57:51;4.13;;;1.67;;
52396;SDS011;38322;53.108;6.308;2023-04-19T18:00:17;2.83;;;1.45;;
52396;SDS011;38322;53.108;6.308;2023-04-19T18:02:43;6.03;;;2.83;;
52396;SDS011;38322;53.108;6.308;2023-04-19T18:05:09;7.68;;;1.55;;
52396;SDS011;38322;53.108;6.308;2023-04-19T18:07:37;5.93;;;1.83;;
52396;SDS011;38322;53.108;6.308;2023-04-19T18:10:03;6.13;;;1.77;;
52396;SDS011;38322;53.108;6.308;2023-04-19T18:12:30;5.88;;;1.27;;
52396;SDS011;38322;53.108;6.308;2023-04-19T18:14:56;8.85;;;2.53;;
52396;SDS011;38322;53.108;6.308;2023-04-19T18:17:22;4.95;;;1.92;;
52396;SDS011;38322;53.108;6.308;2023-04-19T18:19:47;2.53;;;1.88;;
52396;SDS011;38322;53.108;6.308;2023-04-19T18:22:13;4.85;;;1.95;;
52396;SDS011;38322;53.108;6.308;2023-04-19T18:24:39;4.63;;;2.10;;
52396;SDS011;38322;53.108;6.308;2023-04-19T18:27:07;6.00;;;2.38;;
52396;SDS011;38322;53.108;6.308;2023-04-19T18:29:34;1.73;;;1.25;;
52396;SDS011;38322;53.108;6.308;2023-04-19T18:31:59;2.72;;;2.45;;
52396;SDS011;38322;53.108;6.308;2023-04-19T18:34:25;4.55;;;1.75;;
52396;SDS011;38322;53.108;6.308;2023-04-19T18:36:56;3.33;;;1.73;;
52396;SDS011;38322;53.108;6.308;2023-04-19T18:39:22;3.87;;;1.93;;
52396;SDS011;38322;53.108;6.308;2023-04-19T18:41:50;3.95;;;1.55;;
52396;SDS011;38322;53.108;6.308;2023-04-19T18:44:16;4.45;;;2.28;;
52396;SDS011;38322;53.108;6.308;2023-04-19T18:46:41;4.70;;;2.15;;
52396;SDS011;38322;53.108;6.308;2023-04-19T18:49:07;3.67;;;2.00;;
52396;SDS011;38322;53.108;6.308;2023-04-19T18:51:34;3.58;;;2.22;;
52396;SDS011;38322;53.108;6.308;2023-04-19T18:54:01;7.75;;;2.42;;
52396;SDS011;38322;53.108;6.308;2023-04-19T18:56:27;3.47;;;1.88;;
52396;SDS011;38322;53.108;6.308;2023-04-19T18:58:53;4.07;;;2.58;;
52396;SDS011;38322;53.108;6.308;2023-04-19T19:01:19;3.97;;;2.30;;
52396;SDS011;38322;53.108;6.308;2023-04-19T19:03:45;4.35;;;3.20;;
52396;SDS011;38322;53.108;6.308;2023-04-19T19:06:11;3.80;;;1.98;;
52396;SDS011;38322;53.108;6.308;2023-04-19T19:08:37;5.22;;;2.85;;
52396;SDS011;38322;53.108;6.308;2023-04-19T19:11:04;3.05;;;2.00;;
52396;SDS011;38322;53.108;6.308;2023-04-19T19:13:31;7.28;;;2.67;;
52396;SDS011;38322;53.108;6.308;2023-04-19T19:15:57;2.72;;;2.35;;
52396;SDS011;38322;53.108;6.308;2023-04-19T19:18:23;4.88;;;2.20;;
52396;SDS011;38322;53.108;6.308;2023-04-19T19:20:49;4.30;;;2.00;;
52396;SDS011;38322;53.108;6.308;2023-04-19T19:23:15;5.40;;;3.08;;
52396;SDS011;38322;53.108;6.308;2023-04-19T19:25:40;5.32;;;2.53;;
52396;SDS011;38322;53.108;6.308;2023-04-19T19:28:07;5.53;;;2.75;;
52396;SDS011;38322;53.108;6.308;2023-04-19T19:30:35;4.43;;;2.00;;
52396;SDS011;38322;53.108;6.308;2023-04-19T19:33:03;3.33;;;2.78;;
52396;SDS011;38322;53.108;6.308;2023-04-19T19:35:29;5.20;;;2.55;;
52396;SDS011;38322;53.108;6.308;2023-04-19T19:37:55;2.67;;;2.10;;
52396;SDS011;38322;53.108;6.308;2023-04-19T19:40:21;4.18;;;3.00;;
52396;SDS011;38322;53.108;6.308;2023-04-19T19:42:47;4.97;;;2.40;;
52396;SDS011;38322;53.108;6.308;2023-04-19T19:45:12;5.55;;;2.22;;
52396;SDS011;38322;53.108;6.308;2023-04-19T19:47:38;5.88;;;2.85;;
52396;SDS011;38322;53.108;6.308;2023-04-19T19:50:05;6.72;;;2.25;;
52396;SDS011;38322;53.108;6.308;2023-04-19T19:52:31;4.93;;;2.40;;
52396;SDS011;38322;53.108;6.308;2023-04-19T19:54:57;4.25;;;2.40;;
52396;SDS011;38322;53.108;6.308;2023-04-19T19:57:24;6.53;;;2.65;;
52396;SDS011;38322;53.108;6.308;2023-04-19T19:59:50;6.85;;;2.58;;
